Terminal Aerodrome Forecast
Issued by NWS Bismarck, ND

Home | Current Version | Previous Version | Graphics & Text | Print | Product List | Glossary On
Versions: 1 2 3 4 5 6 7 8 9 10 11 12 13 14 15 16 17 18 19 20 21 22
000
FTUS43 KBIS 260500
TAFISN
TAF
KISN 260536Z 2606/2706 14003KT P6SM SCT120 BKN150
     FM260800 VRB02KT P6SM VCSH SCT070 OVC130
      TEMPO 2608/2612 4SM -SN BKN040 OVC110
     FM261300 10005KT P6SM SCT018 BKN035
     FM261600 11006KT P6SM SCT045 BKN120
     FM270200 13008KT P6SM VCSH BKN080 OVC100=

USA.gov is the U.S. government's official web portal to all federal, state and local government web resources and services.